sensor_id;sensor_type;location;lat;lon;timestamp;pressure;altitude;pressure_sealevel;temperature;humidity
79534;BME280;68982;52.160;6.736;2023-09-07T00:00:29;101774.59;;;20.06;76.68
79534;BME280;68982;52.160;6.736;2023-09-07T00:02:55;101772.91;;;20.05;76.74
79534;BME280;68982;52.160;6.736;2023-09-07T00:05:20;101780.06;;;20.06;76.80
79534;BME280;68982;52.160;6.736;2023-09-07T00:07:46;101782.41;;;20.02;77.46
79534;BME280;68982;52.160;6.736;2023-09-07T00:10:11;101781.44;;;19.97;76.81
79534;BME280;68982;52.160;6.736;2023-09-07T00:12:36;101774.75;;;19.93;77.09
79534;BME280;68982;52.160;6.736;2023-09-07T00:15:07;101773.53;;;19.88;77.67
79534;BME280;68982;52.160;6.736;2023-09-07T00:17:33;101781.13;;;19.86;77.43
79534;BME280;68982;52.160;6.736;2023-09-07T00:19:59;101764.09;;;19.84;77.61
79534;BME280;68982;52.160;6.736;2023-09-07T00:22:24;101773.75;;;19.87;77.80
79534;BME280;68982;52.160;6.736;2023-09-07T00:24:52;101778.59;;;19.85;77.48
79534;BME280;68982;52.160;6.736;2023-09-07T00:27:17;101770.94;;;19.75;77.85
79534;BME280;68982;52.160;6.736;2023-09-07T00:29:43;101777.03;;;19.77;78.07
79534;BME280;68982;52.160;6.736;2023-09-07T00:32:08;101772.44;;;19.71;78.20
79534;BME280;68982;52.160;6.736;2023-09-07T00:34:34;101781.31;;;19.66;78.40
79534;BME280;68982;52.160;6.736;2023-09-07T00:37:00;101780.47;;;19.66;78.64
79534;BME280;68982;52.160;6.736;2023-09-07T00:39:25;101772.06;;;19.67;78.16
79534;BME280;68982;52.160;6.736;2023-09-07T00:41:51;101768.16;;;19.57;78.90
79534;BME280;68982;52.160;6.736;2023-09-07T00:44:16;101761.81;;;19.56;77.57
79534;BME280;68982;52.160;6.736;2023-09-07T00:46:42;101767.16;;;19.51;78.84
79534;BME280;68982;52.160;6.736;2023-09-07T00:49:10;101774.53;;;19.51;79.31
79534;BME280;68982;52.160;6.736;2023-09-07T00:51:36;101775.56;;;19.50;78.64
79534;BME280;68982;52.160;6.736;2023-09-07T00:54:02;101771.09;;;19.55;76.37
79534;BME280;68982;52.160;6.736;2023-09-07T00:56:27;101773.69;;;19.50;77.88
79534;BME280;68982;52.160;6.736;2023-09-07T00:58:53;101772.25;;;19.48;79.01
79534;BME280;68982;52.160;6.736;2023-09-07T01:01:21;101777.72;;;19.48;78.53
79534;BME280;68982;52.160;6.736;2023-09-07T01:03:47;101773.09;;;19.48;76.69
79534;BME280;68982;52.160;6.736;2023-09-07T01:06:16;101773.50;;;19.45;77.77
79534;BME280;68982;52.160;6.736;2023-09-07T01:08:46;101774.88;;;19.36;79.76
79534;BME280;68982;52.160;6.736;2023-09-07T01:11:18;101765.38;;;19.38;79.24
79534;BME280;68982;52.160;6.736;2023-09-07T01:13:46;101763.72;;;19.37;79.21
79534;BME280;68982;52.160;6.736;2023-09-07T01:16:13;101767.53;;;19.30;79.97
79534;BME280;68982;52.160;6.736;2023-09-07T01:18:39;101772.53;;;19.39;77.85
79534;BME280;68982;52.160;6.736;2023-09-07T01:21:08;101764.38;;;19.33;78.46
79534;BME280;68982;52.160;6.736;2023-09-07T01:23:35;101761.25;;;19.29;79.43
79534;BME280;68982;52.160;6.736;2023-09-07T01:26:01;101755.63;;;19.24;79.85
79534;BME280;68982;52.160;6.736;2023-09-07T01:28:27;101762.59;;;19.20;79.25
79534;BME280;68982;52.160;6.736;2023-09-07T01:30:53;101755.91;;;19.16;80.02
79534;BME280;68982;52.160;6.736;2023-09-07T01:33:18;101762.44;;;19.15;80.09
79534;BME280;68982;52.160;6.736;2023-09-07T01:35:45;101752.38;;;19.09;80.54
79534;BME280;68982;52.160;6.736;2023-09-07T01:38:10;101742.13;;;19.04;80.25
79534;BME280;68982;52.160;6.736;2023-09-07T01:40:35;101747.81;;;19.02;80.27
79534;BME280;68982;52.160;6.736;2023-09-07T01:43:01;101745.69;;;19.04;78.73
79534;BME280;68982;52.160;6.736;2023-09-07T01:45:26;101753.50;;;19.01;80.85
79534;BME280;68982;52.160;6.736;2023-09-07T01:47:52;101746.81;;;18.97;80.68
79534;BME280;68982;52.160;6.736;2023-09-07T01:50:17;101751.66;;;18.95;80.78
79534;BME280;68982;52.160;6.736;2023-09-07T01:52:46;101747.25;;;18.94;80.61
79534;BME280;68982;52.160;6.736;2023-09-07T01:55:13;101741.16;;;18.92;80.44
79534;BME280;68982;52.160;6.736;2023-09-07T01:57:39;101741.41;;;18.90;80.63
79534;BME280;68982;52.160;6.736;2023-09-07T02:00:05;101720.31;;;18.66;81.58
79534;BME280;68982;52.160;6.736;2023-09-07T02:02:30;101734.31;;;18.76;80.96
79534;BME280;68982;52.160;6.736;2023-09-07T02:04:56;101747.59;;;18.72;81.66
79534;BME280;68982;52.160;6.736;2023-09-07T02:07:21;101746.06;;;18.76;81.19
79534;BME280;68982;52.160;6.736;2023-09-07T02:09:46;101739.81;;;18.69;81.56
79534;BME280;68982;52.160;6.736;2023-09-07T02:12:12;101741.88;;;18.74;80.79
79534;BME280;68982;52.160;6.736;2023-09-07T02:14:37;101740.31;;;18.59;81.76
79534;BME280;68982;52.160;6.736;2023-09-07T02:17:03;101730.88;;;18.55;81.54
79534;BME280;68982;52.160;6.736;2023-09-07T02:19:29;101736.09;;;18.63;81.41
79534;BME280;68982;52.160;6.736;2023-09-07T02:21:54;101738.19;;;18.61;81.89
79534;BME280;68982;52.160;6.736;2023-09-07T02:24:20;101731.72;;;18.56;81.63
79534;BME280;68982;52.160;6.736;2023-09-07T02:26:45;101738.91;;;18.50;81.85
79534;BME280;68982;52.160;6.736;2023-09-07T02:29:13;101742.47;;;18.51;82.03
79534;BME280;68982;52.160;6.736;2023-09-07T02:31:42;101741.22;;;18.47;81.90
79534;BME280;68982;52.160;6.736;2023-09-07T02:34:07;101745.84;;;18.46;82.28
79534;BME280;68982;52.160;6.736;2023-09-07T02:36:33;101737.69;;;18.39;82.56
79534;BME280;68982;52.160;6.736;2023-09-07T02:39:00;101751.16;;;18.41;82.65
79534;BME280;68982;52.160;6.736;2023-09-07T02:41:26;101742.72;;;18.42;82.11
79534;BME280;68982;52.160;6.736;2023-09-07T02:43:52;101735.34;;;18.43;82.18
79534;BME280;68982;52.160;6.736;2023-09-07T02:46:17;101741.25;;;18.40;82.06
79534;BME280;68982;52.160;6.736;2023-09-07T02:48:43;101744.03;;;18.33;82.49
79534;BME280;68982;52.160;6.736;2023-09-07T02:51:08;101744.84;;;18.34;81.72
79534;BME280;68982;52.160;6.736;2023-09-07T02:53:33;101732.72;;;18.30;80.07
79534;BME280;68982;52.160;6.736;2023-09-07T02:55:59;101734.84;;;18.28;82.63
79534;BME280;68982;52.160;6.736;2023-09-07T02:58:27;101731.06;;;18.22;82.74
79534;BME280;68982;52.160;6.736;2023-09-07T03:00:52;101741.53;;;18.25;82.73
79534;BME280;68982;52.160;6.736;2023-09-07T03:03:18;101736.97;;;18.19;82.68
79534;BME280;68982;52.160;6.736;2023-09-07T03:05:43;101731.94;;;18.16;82.14
79534;BME280;68982;52.160;6.736;2023-09-07T03:08:10;101736.13;;;18.18;82.97
79534;BME280;68982;52.160;6.736;2023-09-07T03:10:36;101732.78;;;18.16;82.74
79534;BME280;68982;52.160;6.736;2023-09-07T03:13:03;101741.19;;;18.15;82.85
79534;BME280;68982;52.160;6.736;2023-09-07T03:15:29;101737.00;;;18.12;82.90
79534;BME280;68982;52.160;6.736;2023-09-07T03:17:54;101735.75;;;18.08;82.74
79534;BME280;68982;52.160;6.736;2023-09-07T03:20:19;101742.66;;;18.11;83.13
79534;BME280;68982;52.160;6.736;2023-09-07T03:22:45;101751.28;;;18.14;82.47
79534;BME280;68982;52.160;6.736;2023-09-07T03:25:11;101734.47;;;18.11;82.77
79534;BME280;68982;52.160;6.736;2023-09-07T03:27:37;101744.78;;;18.09;82.74
79534;BME280;68982;52.160;6.736;2023-09-07T03:30:04;101745.59;;;18.09;81.66
79534;BME280;68982;52.160;6.736;2023-09-07T03:32:30;101742.06;;;18.02;82.77
79534;BME280;68982;52.160;6.736;2023-09-07T03:34:58;101740.41;;;18.01;82.72
79534;BME280;68982;52.160;6.736;2023-09-07T03:37:24;101748.16;;;18.04;82.42
79534;BME280;68982;52.160;6.736;2023-09-07T03:39:50;101750.88;;;18.04;82.56
79534;BME280;68982;52.160;6.736;2023-09-07T03:42:16;101759.28;;;18.02;82.44
79534;BME280;68982;52.160;6.736;2023-09-07T03:44:41;101746.69;;;18.01;81.12
79534;BME280;68982;52.160;6.736;2023-09-07T03:47:07;101752.38;;;18.00;81.61
79534;BME280;68982;52.160;6.736;2023-09-07T03:49:32;101748.38;;;17.96;82.27
79534;BME280;68982;52.160;6.736;2023-09-07T03:51:57;101744.22;;;17.87;81.98
79534;BME280;68982;52.160;6.736;2023-09-07T03:54:23;101748.59;;;18.01;81.68
79534;BME280;68982;52.160;6.736;2023-09-07T03:56:48;101744.19;;;17.93;82.06
79534;BME280;68982;52.160;6.736;2023-09-07T03:59:13;101735.22;;;17.86;80.59
79534;BME280;68982;52.160;6.736;2023-09-07T04:01:39;101747.16;;;17.85;82.23
79534;BME280;68982;52.160;6.736;2023-09-07T04:04:04;101757.47;;;17.83;82.40
79534;BME280;68982;52.160;6.736;2023-09-07T04:06:32;101751.78;;;17.85;82.81
79534;BME280;68982;52.160;6.736;2023-09-07T04:08:58;101739.22;;;17.84;79.79
79534;BME280;68982;52.160;6.736;2023-09-07T04:11:23;101747.59;;;17.82;82.22
79534;BME280;68982;52.160;6.736;2023-09-07T04:13:48;101750.13;;;17.84;81.54
79534;BME280;68982;52.160;6.736;2023-09-07T04:16:14;101748.41;;;17.76;82.14
79534;BME280;68982;52.160;6.736;2023-09-07T04:18:39;101744.66;;;17.77;81.50
79534;BME280;68982;52.160;6.736;2023-09-07T04:21:06;101742.97;;;17.76;80.02
79534;BME280;68982;52.160;6.736;2023-09-07T04:23:31;101749.88;;;17.78;80.38
79534;BME280;68982;52.160;6.736;2023-09-07T04:26:07;101737.31;;;17.77;81.56
79534;BME280;68982;52.160;6.736;2023-09-07T04:28:33;101749.88;;;17.78;81.23
79534;BME280;68982;52.160;6.736;2023-09-07T04:30:58;101748.66;;;17.74;81.23
79534;BME280;68982;52.160;6.736;2023-09-07T04:33:24;101744.88;;;17.62;81.84
79534;BME280;68982;52.160;6.736;2023-09-07T04:35:49;101753.88;;;17.69;81.42
79534;BME280;68982;52.160;6.736;2023-09-07T04:38:14;101749.31;;;17.56;81.90
79534;BME280;68982;52.160;6.736;2023-09-07T04:40:40;101754.78;;;17.56;81.87
79534;BME280;68982;52.160;6.736;2023-09-07T04:43:05;101751.81;;;17.58;81.37
79534;BME280;68982;52.160;6.736;2023-09-07T04:45:30;101741.97;;;17.57;80.59
79534;BME280;68982;52.160;6.736;2023-09-07T04:47:56;101749.31;;;17.56;81.21
79534;BME280;68982;52.160;6.736;2023-09-07T04:50:21;101742.00;;;17.50;81.85
79534;BME280;68982;52.160;6.736;2023-09-07T04:52:47;101755.63;;;17.57;81.07
79534;BME280;68982;52.160;6.736;2023-09-07T04:55:12;101759.16;;;17.57;80.36
79534;BME280;68982;52.160;6.736;2023-09-07T04:57:37;101755.16;;;17.60;81.05
79534;BME280;68982;52.160;6.736;2023-09-07T05:00:05;101748.28;;;17.51;81.49
79534;BME280;68982;52.160;6.736;2023-09-07T05:02:31;101760.44;;;17.48;81.57
79534;BME280;68982;52.160;6.736;2023-09-07T05:04:57;101762.53;;;17.53;80.08
79534;BME280;68982;52.160;6.736;2023-09-07T05:07:22;101752.25;;;17.48;81.50
79534;BME280;68982;52.160;6.736;2023-09-07T05:09:47;101755.38;;;17.52;81.35
79534;BME280;68982;52.160;6.736;2023-09-07T05:12:14;101750.56;;;17.47;81.01
79534;BME280;68982;52.160;6.736;2023-09-07T05:14:43;101751.84;;;17.38;81.91
79534;BME280;68982;52.160;6.736;2023-09-07T05:17:08;101771.16;;;17.43;81.65
79534;BME280;68982;52.160;6.736;2023-09-07T05:19:34;101765.06;;;17.48;80.26
79534;BME280;68982;52.160;6.736;2023-09-07T05:21:59;101767.56;;;17.43;81.39
79534;BME280;68982;52.160;6.736;2023-09-07T05:24:25;101772.38;;;17.47;80.79
79534;BME280;68982;52.160;6.736;2023-09-07T05:26:50;101763.59;;;17.38;81.57
79534;BME280;68982;52.160;6.736;2023-09-07T05:29:15;101768.19;;;17.45;81.24
79534;BME280;68982;52.160;6.736;2023-09-07T05:31:41;101778.47;;;17.49;81.34
79534;BME280;68982;52.160;6.736;2023-09-07T05:34:06;101772.38;;;17.40;77.93
79534;BME280;68982;52.160;6.736;2023-09-07T05:36:31;101778.47;;;17.49;80.42
79534;BME280;68982;52.160;6.736;2023-09-07T05:38:57;101777.22;;;17.45;80.21
79534;BME280;68982;52.160;6.736;2023-09-07T05:41:22;101785.81;;;17.55;80.45
79534;BME280;68982;52.160;6.736;2023-09-07T05:43:48;101773.63;;;17.58;80.86
79534;BME280;68982;52.160;6.736;2023-09-07T05:46:14;101770.91;;;17.51;79.60
79534;BME280;68982;52.160;6.736;2023-09-07T05:48:39;101782.06;;;17.50;80.21
79534;BME280;68982;52.160;6.736;2023-09-07T05:51:05;101784.97;;;17.55;80.28
79534;BME280;68982;52.160;6.736;2023-09-07T05:53:31;101783.09;;;17.49;80.44
79534;BME280;68982;52.160;6.736;2023-09-07T05:55:56;101777.00;;;17.47;78.13
79534;BME280;68982;52.160;6.736;2023-09-07T05:58:21;101774.47;;;17.52;80.42
79534;BME280;68982;52.160;6.736;2023-09-07T06:00:47;101771.16;;;17.50;80.45
79534;BME280;68982;52.160;6.736;2023-09-07T06:03:12;101782.44;;;17.60;80.43
79534;BME280;68982;52.160;6.736;2023-09-07T06:05:38;101784.31;;;17.66;79.44
79534;BME280;68982;52.160;6.736;2023-09-07T06:08:05;101791.22;;;17.75;79.52
79534;BME280;68982;52.160;6.736;2023-09-07T06:10:31;101798.38;;;17.76;79.81
79534;BME280;68982;52.160;6.736;2023-09-07T06:12:57;101793.97;;;17.75;79.58
79534;BME280;68982;52.160;6.736;2023-09-07T06:15:23;101802.34;;;17.80;79.70
79534;BME280;68982;52.160;6.736;2023-09-07T06:17:48;101785.13;;;17.80;78.08
79534;BME280;68982;52.160;6.736;2023-09-07T06:20:15;101797.94;;;17.93;79.04
79534;BME280;68982;52.160;6.736;2023-09-07T06:22:40;101802.75;;;17.97;79.40
79534;BME280;68982;52.160;6.736;2023-09-07T06:25:06;101798.75;;;18.00;77.13
79534;BME280;68982;52.160;6.736;2023-09-07T06:27:31;101800.66;;;17.99;79.59
79534;BME280;68982;52.160;6.736;2023-09-07T06:29:57;101792.66;;;18.05;78.28
79534;BME280;68982;52.160;6.736;2023-09-07T06:32:22;101798.31;;;18.10;77.94
79534;BME280;68982;52.160;6.736;2023-09-07T06:34:48;101800.81;;;18.11;79.44
79534;BME280;68982;52.160;6.736;2023-09-07T06:37:13;101797.22;;;18.17;78.70
79534;BME280;68982;52.160;6.736;2023-09-07T06:39:38;101800.78;;;18.25;77.73
79534;BME280;68982;52.160;6.736;2023-09-07T06:42:04;101802.84;;;18.29;79.19
79534;BME280;68982;52.160;6.736;2023-09-07T06:44:29;101805.16;;;18.32;78.78
79534;BME280;68982;52.160;6.736;2023-09-07T06:46:55;101805.97;;;18.39;78.51
79534;BME280;68982;52.160;6.736;2023-09-07T06:49:21;101809.72;;;18.45;78.75
79534;BME280;68982;52.160;6.736;2023-09-07T06:51:46;101817.84;;;18.58;78.50
79534;BME280;68982;52.160;6.736;2023-09-07T06:54:12;101806.28;;;18.56;78.37
79534;BME280;68982;52.160;6.736;2023-09-07T06:56:38;101818.19;;;18.75;77.97
79534;BME280;68982;52.160;6.736;2023-09-07T06:59:03;101815.84;;;18.86;76.76
79534;BME280;68982;52.160;6.736;2023-09-07T07:01:29;101810.13;;;18.87;77.53
79534;BME280;68982;52.160;6.736;2023-09-07T07:03:54;101815.94;;;19.04;75.93
79534;BME280;68982;52.160;6.736;2023-09-07T07:06:21;101822.97;;;19.18;75.92
79534;BME280;68982;52.160;6.736;2023-09-07T07:08:47;101826.31;;;19.20;75.76
79534;BME280;68982;52.160;6.736;2023-09-07T07:11:12;101820.38;;;19.30;75.41
79534;BME280;68982;52.160;6.736;2023-09-07T07:13:37;101814.59;;;19.38;75.41
79534;BME280;68982;52.160;6.736;2023-09-07T07:16:04;101819.41;;;19.43;75.15
79534;BME280;68982;52.160;6.736;2023-09-07T07:18:30;101814.47;;;19.52;75.49
79534;BME280;68982;52.160;6.736;2023-09-07T07:20:55;101813.72;;;19.70;75.09
79534;BME280;68982;52.160;6.736;2023-09-07T07:23:20;101820.34;;;19.80;74.26
79534;BME280;68982;52.160;6.736;2023-09-07T07:25:46;101814.59;;;19.88;74.89
79534;BME280;68982;52.160;6.736;2023-09-07T07:28:11;101815.88;;;20.04;73.97
79534;BME280;68982;52.160;6.736;2023-09-07T07:30:38;101820.88;;;20.07;74.92
79534;BME280;68982;52.160;6.736;2023-09-07T07:33:05;101808.41;;;20.12;74.06
79534;BME280;68982;52.160;6.736;2023-09-07T07:35:32;101826.13;;;20.27;74.07
79534;BME280;68982;52.160;6.736;2023-09-07T07:37:58;101822.47;;;20.52;72.38
79534;BME280;68982;52.160;6.736;2023-09-07T07:40:24;101814.56;;;20.62;70.93
79534;BME280;68982;52.160;6.736;2023-09-07T07:42:51;101817.81;;;20.71;71.94
79534;BME280;68982;52.160;6.736;2023-09-07T07:45:17;101818.13;;;20.93;70.06
79534;BME280;68982;52.160;6.736;2023-09-07T07:47:45;101822.69;;;20.99;71.06
79534;BME280;68982;52.160;6.736;2023-09-07T07:50:11;101818.44;;;21.27;69.69
79534;BME280;68982;52.160;6.736;2023-09-07T07:52:36;101822.78;;;21.46;70.20
79534;BME280;68982;52.160;6.736;2023-09-07T07:55:02;101820.66;;;21.60;68.80
79534;BME280;68982;52.160;6.736;2023-09-07T07:57:27;101821.97;;;21.69;67.45
79534;BME280;68982;52.160;6.736;2023-09-07T07:59:55;101819.06;;;22.00;67.69
79534;BME280;68982;52.160;6.736;2023-09-07T08:02:20;101809.16;;;22.22;66.24
79534;BME280;68982;52.160;6.736;2023-09-07T08:04:46;101829.63;;;22.72;65.47
79534;BME280;68982;52.160;6.736;2023-09-07T08:07:11;101834.84;;;22.85;64.71
79534;BME280;68982;52.160;6.736;2023-09-07T08:09:36;101829.88;;;22.99;64.20
79534;BME280;68982;52.160;6.736;2023-09-07T08:12:03;101824.19;;;23.34;63.46
79534;BME280;68982;52.160;6.736;2023-09-07T08:14:29;101831.09;;;23.54;62.31
79534;BME280;68982;52.160;6.736;2023-09-07T08:16:57;101838.22;;;24.06;60.43
79534;BME280;68982;52.160;6.736;2023-09-07T08:19:22;101827.09;;;24.17;60.35
79534;BME280;68982;52.160;6.736;2023-09-07T08:21:48;101827.38;;;24.43;58.64
79534;BME280;68982;52.160;6.736;2023-09-07T08:24:13;101830.06;;;24.82;57.58
79534;BME280;68982;52.160;6.736;2023-09-07T08:26:39;101832.00;;;25.14;56.54
79534;BME280;68982;52.160;6.736;2023-09-07T08:29:04;101815.75;;;24.85;57.45
79534;BME280;68982;52.160;6.736;2023-09-07T08:31:33;101813.84;;;24.86;57.55
79534;BME280;68982;52.160;6.736;2023-09-07T08:34:05;101811.44;;;25.21;57.68
79534;BME280;68982;52.160;6.736;2023-09-07T08:36:31;101804.53;;;25.61;55.35
79534;BME280;68982;52.160;6.736;2023-09-07T08:38:59;101820.88;;;26.16;54.18
79534;BME280;68982;52.160;6.736;2023-09-07T08:41:26;101813.28;;;26.54;53.37
79534;BME280;68982;52.160;6.736;2023-09-07T08:43:55;101818.88;;;26.69;51.38
79534;BME280;68982;52.160;6.736;2023-09-07T08:46:22;101802.47;;;26.42;53.04
79534;BME280;68982;52.160;6.736;2023-09-07T08:48:49;101824.03;;;26.40;52.89
79534;BME280;68982;52.160;6.736;2023-09-07T08:51:15;101820.31;;;26.09;53.38
79534;BME280;68982;52.160;6.736;2023-09-07T08:53:42;101821.50;;;26.33;52.86
79534;BME280;68982;52.160;6.736;2023-09-07T08:56:12;101819.63;;;26.49;51.82
79534;BME280;68982;52.160;6.736;2023-09-07T08:58:37;101810.63;;;26.79;51.18
79534;BME280;68982;52.160;6.736;2023-09-07T09:01:03;101791.00;;;27.01;50.90
79534;BME280;68982;52.160;6.736;2023-09-07T09:03:28;101812.59;;;27.40;50.94
79534;BME280;68982;52.160;6.736;2023-09-07T09:05:55;101809.56;;;27.42;49.65
79534;BME280;68982;52.160;6.736;2023-09-07T09:08:20;101810.38;;;27.01;50.53
79534;BME280;68982;52.160;6.736;2023-09-07T09:10:58;101810.94;;;27.39;50.14
79534;BME280;68982;52.160;6.736;2023-09-07T09:13:27;101823.38;;;27.52;49.36
79534;BME280;68982;52.160;6.736;2023-09-07T09:15:53;101815.50;;;28.05;47.90
79534;BME280;68982;52.160;6.736;2023-09-07T09:18:18;101804.22;;;28.51;47.01
79534;BME280;68982;52.160;6.736;2023-09-07T09:20:43;101794.78;;;27.87;47.81
79534;BME280;68982;52.160;6.736;2023-09-07T09:23:09;101805.47;;;28.20;48.64
79534;BME280;68982;52.160;6.736;2023-09-07T09:25:36;101809.00;;;28.36;47.02
79534;BME280;68982;52.160;6.736;2023-09-07T09:28:02;101802.56;;;28.56;46.67
79534;BME280;68982;52.160;6.736;2023-09-07T09:30:28;101800.06;;;28.93;46.23
79534;BME280;68982;52.160;6.736;2023-09-07T09:32:54;101803.81;;;28.73;46.66
79534;BME280;68982;52.160;6.736;2023-09-07T09:35:19;101800.03;;;28.59;47.14
79534;BME280;68982;52.160;6.736;2023-09-07T09:37:46;101799.88;;;28.35;47.30
79534;BME280;68982;52.160;6.736;2023-09-07T09:40:14;101792.50;;;29.04;44.97
79534;BME280;68982;52.160;6.736;2023-09-07T09:42:43;101799.09;;;28.79;44.21
79534;BME280;68982;52.160;6.736;2023-09-07T09:45:10;101797.72;;;28.71;45.14
79534;BME280;68982;52.160;6.736;2023-09-07T09:47:42;101791.41;;;29.00;44.61
79534;BME280;68982;52.160;6.736;2023-09-07T09:50:09;101789.47;;;29.35;43.48
79534;BME280;68982;52.160;6.736;2023-09-07T09:52:35;101792.81;;;28.98;44.82
79534;BME280;68982;52.160;6.736;2023-09-07T09:55:04;101786.69;;;29.35;43.89
79534;BME280;68982;52.160;6.736;2023-09-07T09:57:31;101780.63;;;29.86;43.60
79534;BME280;68982;52.160;6.736;2023-09-07T09:59:58;101774.63;;;29.98;41.62
79534;BME280;68982;52.160;6.736;2023-09-07T10:02:24;101777.91;;;29.23;43.64
79534;BME280;68982;52.160;6.736;2023-09-07T10:04:52;101769.41;;;29.67;42.18
79534;BME280;68982;52.160;6.736;2023-09-07T10:07:19;101770.56;;;29.37;43.74
79534;BME280;68982;52.160;6.736;2023-09-07T10:09:44;101777.25;;;29.89;42.24
79534;BME280;68982;52.160;6.736;2023-09-07T10:12:13;101767.56;;;30.30;41.24
79534;BME280;68982;52.160;6.736;2023-09-07T10:14:39;101769.47;;;30.53;41.10
79534;BME280;68982;52.160;6.736;2023-09-07T10:17:05;101761.69;;;30.50;41.61
79534;BME280;68982;52.160;6.736;2023-09-07T10:19:31;101756.81;;;30.42;43.00
79534;BME280;68982;52.160;6.736;2023-09-07T10:21:57;101762.16;;;30.14;42.97
79534;BME280;68982;52.160;6.736;2023-09-07T10:24:27;101758.50;;;30.19;41.94
79534;BME280;68982;52.160;6.736;2023-09-07T10:27:07;101759.31;;;30.01;41.56
79534;BME280;68982;52.160;6.736;2023-09-07T10:29:50;101753.59;;;30.35;42.04
79534;BME280;68982;52.160;6.736;2023-09-07T10:32:17;101761.84;;;30.40;40.89
79534;BME280;68982;52.160;6.736;2023-09-07T10:34:43;101752.56;;;30.26;42.75
79534;BME280;68982;52.160;6.736;2023-09-07T10:37:10;101748.09;;;29.87;42.02
79534;BME280;68982;52.160;6.736;2023-09-07T10:39:39;101751.00;;;30.20;41.14
79534;BME280;68982;52.160;6.736;2023-09-07T10:42:05;101742.88;;;30.61;42.19
79534;BME280;68982;52.160;6.736;2023-09-07T10:44:30;101741.63;;;30.34;41.25
79534;BME280;68982;52.160;6.736;2023-09-07T10:46:59;101743.31;;;30.11;42.43
79534;BME280;68982;52.160;6.736;2023-09-07T10:49:25;101749.28;;;30.43;41.48
79534;BME280;68982;52.160;6.736;2023-09-07T10:51:51;101743.13;;;30.65;40.82
79534;BME280;68982;52.160;6.736;2023-09-07T10:54:24;101731.31;;;30.54;40.52
79534;BME280;68982;52.160;6.736;2023-09-07T10:56:50;101742.75;;;30.33;42.44
79534;BME280;68982;52.160;6.736;2023-09-07T10:59:17;101735.31;;;30.29;43.41
79534;BME280;68982;52.160;6.736;2023-09-07T11:01:45;101732.63;;;30.19;42.47
79534;BME280;68982;52.160;6.736;2023-09-07T11:04:11;101724.56;;;29.50;43.08
79534;BME280;68982;52.160;6.736;2023-09-07T11:06:37;101735.63;;;30.46;41.75
79534;BME280;68982;52.160;6.736;2023-09-07T11:09:04;101729.88;;;30.56;41.06
79534;BME280;68982;52.160;6.736;2023-09-07T11:11:31;101727.63;;;30.58;40.59
79534;BME280;68982;52.160;6.736;2023-09-07T11:13:58;101716.75;;;30.95;39.72
79534;BME280;68982;52.160;6.736;2023-09-07T11:16:25;101715.06;;;31.13;39.19
79534;BME280;68982;52.160;6.736;2023-09-07T11:18:52;101715.00;;;30.99;40.48
79534;BME280;68982;52.160;6.736;2023-09-07T11:21:19;101714.81;;;31.09;38.78
79534;BME280;68982;52.160;6.736;2023-09-07T11:23:45;101710.25;;;31.74;36.55
79534;BME280;68982;52.160;6.736;2023-09-07T11:26:10;101720.56;;;32.01;36.07
79534;BME280;68982;52.160;6.736;2023-09-07T11:28:37;101716.44;;;31.43;37.47
79534;BME280;68982;52.160;6.736;2023-09-07T11:31:03;101714.47;;;31.44;37.86
79534;BME280;68982;52.160;6.736;2023-09-07T11:33:33;101708.41;;;31.55;37.17
79534;BME280;68982;52.160;6.736;2023-09-07T11:35:59;101716.75;;;31.69;36.65
79534;BME280;68982;52.160;6.736;2023-09-07T11:38:29;101719.00;;;31.81;36.36
79534;BME280;68982;52.160;6.736;2023-09-07T11:40:55;101716.44;;;31.85;35.89
79534;BME280;68982;52.160;6.736;2023-09-07T11:43:21;101710.47;;;32.28;36.32
79534;BME280;68982;52.160;6.736;2023-09-07T11:45:48;101708.94;;;32.21;34.67
79534;BME280;68982;52.160;6.736;2023-09-07T11:48:13;101706.31;;;32.03;36.39
79534;BME280;68982;52.160;6.736;2023-09-07T11:50:39;101705.75;;;32.14;37.20
79534;BME280;68982;52.160;6.736;2023-09-07T11:53:05;101705.69;;;31.78;36.34
79534;BME280;68982;52.160;6.736;2023-09-07T11:55:31;101695.16;;;32.03;35.63
79534;BME280;68982;52.160;6.736;2023-09-07T11:57:57;101699.66;;;32.12;37.08
79534;BME280;68982;52.160;6.736;2023-09-07T12:00:23;101696.66;;;31.95;37.54
79534;BME280;68982;52.160;6.736;2023-09-07T12:02:48;101698.84;;;32.12;35.94
79534;BME280;68982;52.160;6.736;2023-09-07T12:05:14;101692.19;;;32.21;36.04
79534;BME280;68982;52.160;6.736;2023-09-07T12:07:40;101698.25;;;32.01;36.39
79534;BME280;68982;52.160;6.736;2023-09-07T12:10:06;101683.06;;;32.07;36.90
79534;BME280;68982;52.160;6.736;2023-09-07T12:12:36;101683.19;;;32.02;36.06
79534;BME280;68982;52.160;6.736;2023-09-07T12:15:02;101681.31;;;32.34;36.03
79534;BME280;68982;52.160;6.736;2023-09-07T12:17:32;101676.91;;;32.19;36.56
79534;BME280;68982;52.160;6.736;2023-09-07T12:19:58;101667.94;;;32.22;35.79
79534;BME280;68982;52.160;6.736;2023-09-07T12:22:23;101666.53;;;32.33;35.85
79534;BME280;68982;52.160;6.736;2023-09-07T12:24:49;101672.66;;;32.21;36.22
79534;BME280;68982;52.160;6.736;2023-09-07T12:27:14;101676.28;;;32.58;34.67
79534;BME280;68982;52.160;6.736;2023-09-07T12:29:40;101667.88;;;32.36;35.94
79534;BME280;68982;52.160;6.736;2023-09-07T12:32:05;101666.78;;;32.59;34.06
79534;BME280;68982;52.160;6.736;2023-09-07T12:34:31;101670.59;;;32.27;35.23
79534;BME280;68982;52.160;6.736;2023-09-07T12:36:56;101662.88;;;32.47;34.47
79534;BME280;68982;52.160;6.736;2023-09-07T12:39:22;101665.72;;;32.78;34.54
79534;BME280;68982;52.160;6.736;2023-09-07T12:41:47;101654.25;;;32.79;33.94
79534;BME280;68982;52.160;6.736;2023-09-07T12:44:12;101668.72;;;32.59;35.89